Valognes, Francia

9:01 AM CEST en Septiembre 03, 2014 (GMT +0200)
Alderney | Change Station
CLOSE
Current Station
Aeropuerto
Location: Alderney,
Altura: 233 ft
Estaciones meteorológicas cercanas

Alt 233 ft 49.71 °N, 2.21 °W | Updated 11 minutes ago

Scattered Clouds
Nubes dispersas
63 ° F
Sensación térmica 63 ° F
N
12
Viento Variable Viento desde ENE

Hoy
Alta -- | Baja -- ° F
--% Posibilidad de precipitaciones
Ayer
Alta -- | Baja -- ° F
Precip. -- pul
7:24 AM 8:45 PM
Cuarto creciente, 59% visible
Presión 30.15 pul
Visibilidad 1.9 Millas
Nubes Nubes dispersas 100 ft
Punto de rocío 61 ° F
Humedad 94%
Precipitaciones 0.00 pul
Espesor de la nieve No disponible.
UV 1 de una escala de 12
Polen No disponible.
Calidad del aire No disponible.
Flu Activity No disponible.
METAR EGJA 030650Z 07010KT 3000 BR SCT001 17/16 Q1021

More Conditions Fewer Conditions

Presión 30.15 pul
Visibilidad 1.9 Millas
Nubes Nubes dispersas 100 ft
Punto de rocío 61 ° F
Humedad 94%
Precipitaciones 0.00 pul
Espesor de la nieve No disponible.
UV 1 de una escala de 12
Polen No disponible.
Calidad del aire No disponible.
Flu Activity No disponible.
METAR EGJA 030650Z 07010KT 3000 BR SCT001 17/16 Q1021

More Conditions Fewer Conditions

10-Day Weather Forecast

Almanac

Astronomía

Sep. 03, 2014 Salida Puesta
Hora real 7:24 AM CEST 8:45 PM CEST
Crepúsculo civil 6:51 AM CEST 9:18 PM CEST
Crepúsculo náutico 6:10 AM CEST 9:58 PM CEST
Crepúsculo astronómico 5:27 AM CEST 10:41 PM CEST
Luna 4:31 PM CEST 12:48 AM CEST
Horas de luz 14h 27m
Horas de luz
13h 21m
Tomorrow will be 3m 33s shorter.
Cuarto creciente, 59% of the Moon is Illuminated
Hoy
Cuarto creciente
Sep 8
Luna llena
Sep 15
Cuarto menguante
Sep 24
Nueva
Oct 1
Cuarto creciente

Extremos de ayer

Máximos del país Bajas del país

Community

WunderPhotos

Upload Photos

1,749,888 ¡fotos cargadas!

Nearby

Calidad del aire

Not available.

Grosos de nieve

Not available.

Actividad de terremotos

Ciudad Distance Mag. Tiempo y dato
No hay informes recientes de la actividad sísmica.
Magnitud mínima muestra es 2,5.

Temperaturas de aguas costeras

Lugar Temperatura
Sin partes meteorológicos de las estaciones

Estaciones meteorológicas cercanas